createdAt,value
2018-09-08T00:02:27.531Z,80.17
2018-09-08T00:04:55.199Z,80.66
2018-09-08T00:07:28.390Z,79.74
2018-09-08T00:09:56.074Z,80.15
2018-09-08T00:12:23.745Z,79.77
2018-09-08T00:14:50.795Z,80.09
2018-09-08T00:17:24.268Z,80.10
2018-09-08T00:19:57.393Z,79.84
2018-09-08T00:22:30.522Z,80.17
2018-09-08T00:25:03.652Z,80.04
2018-09-08T00:27:36.816Z,79.44
2018-09-08T00:30:12.716Z,79.54
2018-09-08T00:32:40.745Z,79.50
2018-09-08T00:35:08.413Z,79.86
2018-09-08T00:37:36.065Z,79.85
2018-09-08T00:40:03.837Z,79.55
2018-09-08T00:42:31.488Z,79.94
2018-09-08T00:44:59.510Z,79.56
2018-09-08T00:47:27.156Z,79.78
2018-09-08T00:49:55.105Z,80.60
2018-09-08T00:52:22.791Z,80.57
2018-09-08T00:54:50.445Z,79.83
2018-09-08T00:57:18.123Z,80.11
2018-09-08T00:59:45.812Z,79.95
2018-09-08T01:02:13.464Z,80.37
2018-09-08T01:04:41.277Z,79.72
2018-09-08T01:07:13.502Z,80.00
2018-09-08T01:09:41.149Z,80.12
2018-09-08T01:12:08.818Z,80.96
2018-09-08T01:14:36.449Z,80.17
2018-09-08T01:17:04.096Z,80.92
2018-09-08T01:19:31.836Z,80.96
2018-09-08T01:21:59.498Z,80.97
2018-09-08T01:24:27.158Z,81.05
2018-09-08T01:26:54.846Z,80.98
2018-09-08T01:29:22.516Z,80.47
2018-09-08T01:31:50.173Z,81.29
2018-09-08T01:34:17.834Z,80.33
2018-09-08T01:36:45.736Z,81.54
2018-09-08T01:39:13.406Z,80.57
2018-09-08T01:41:41.110Z,80.42
2018-09-08T01:44:08.754Z,81.43
2018-09-08T01:46:36.398Z,80.95
2018-09-08T01:49:04.068Z,80.54
2018-09-08T01:51:31.715Z,81.29
2018-09-08T01:53:59.401Z,81.43
2018-09-08T01:56:27.058Z,80.65
2018-09-08T01:58:54.718Z,81.82
2018-09-08T02:01:22.368Z,81.92
2018-09-08T02:03:50.016Z,81.93
2018-09-08T02:06:17.687Z,81.76
2018-09-08T02:08:45.370Z,81.91
2018-09-08T02:11:13.025Z,81.68
2018-09-08T02:13:40.729Z,81.64
2018-09-08T02:16:08.405Z,81.08
2018-09-08T02:18:36.075Z,81.09
2018-09-08T02:21:03.753Z,81.61
2018-09-08T02:23:31.590Z,82.14
2018-09-08T02:26:01.034Z,81.47
2018-09-08T02:28:28.682Z,81.81
2018-09-08T02:30:56.341Z,81.81
2018-09-08T02:33:24.011Z,81.47
2018-09-08T02:35:51.684Z,82.14
2018-09-08T02:38:19.361Z,81.27
2018-09-08T02:40:47.085Z,82.65
2018-09-08T02:43:14.752Z,81.83
2018-09-08T02:45:42.403Z,82.28
2018-09-08T02:48:10.046Z,81.90
2018-09-08T02:50:38.413Z,82.22
2018-09-08T02:53:05.813Z,81.78
2018-09-08T02:55:32.944Z,82.54
2018-09-08T02:57:59.602Z,81.72
2018-09-08T03:00:26.626Z,82.10
2018-09-08T03:02:53.209Z,82.00
2018-09-08T03:05:19.788Z,82.32
2018-09-08T03:07:46.338Z,81.77
2018-09-08T03:10:13.245Z,82.58
2018-09-08T03:12:39.707Z,81.81
2018-09-08T03:15:06.195Z,81.64
2018-09-08T03:17:32.681Z,82.66
2018-09-08T03:19:59.110Z,81.66
2018-09-08T03:22:25.538Z,81.98
2018-09-08T03:24:51.973Z,81.66
2018-09-08T03:27:18.583Z,81.26
2018-09-08T03:29:45.008Z,81.33
2018-09-08T03:32:11.626Z,81.82
2018-09-08T03:34:38.054Z,81.26
2018-09-08T03:37:04.536Z,81.42
2018-09-08T03:39:30.985Z,81.56
2018-09-08T03:41:57.413Z,81.13
2018-09-08T03:44:23.899Z,81.83
2018-09-08T03:46:50.329Z,81.61
2018-09-08T03:49:16.770Z,81.61
2018-09-08T03:51:43.234Z,81.82
2018-09-08T03:54:09.693Z,81.73
2018-09-08T03:56:36.126Z,82.10
2018-09-08T03:59:02.667Z,81.67
2018-09-08T04:01:29.147Z,82.03
2018-09-08T04:03:56.905Z,81.91
2018-09-08T04:06:24.598Z,82.28
2018-09-08T04:08:52.270Z,81.91
2018-09-08T04:11:19.963Z,81.44
2018-09-08T04:13:47.621Z,81.48
2018-09-08T04:16:15.261Z,81.60
2018-09-08T04:18:42.909Z,81.98
2018-09-08T04:21:10.580Z,82.85
2018-09-08T04:23:38.243Z,82.30
2018-09-08T04:26:06.414Z,81.99
2018-09-08T04:28:34.062Z,81.79
2018-09-08T04:31:02.691Z,82.39
2018-09-08T04:33:30.412Z,82.64
2018-09-08T04:35:58.116Z,82.66
2018-09-08T04:38:25.799Z,82.54
2018-09-08T04:40:53.491Z,83.04
2018-09-08T04:43:21.150Z,82.43
2018-09-08T04:45:52.315Z,82.39
2018-09-08T04:48:19.987Z,83.22
2018-09-08T04:50:47.634Z,82.63
2018-09-08T04:53:15.332Z,82.45
2018-09-08T04:55:42.977Z,82.34
2018-09-08T04:58:10.617Z,82.42
2018-09-08T05:00:38.482Z,81.77
2018-09-08T05:03:06.305Z,81.86
2018-09-08T05:05:33.957Z,81.42
2018-09-08T05:08:01.678Z,82.39
2018-09-08T05:10:29.338Z,81.95
2018-09-08T05:12:57.004Z,81.85
2018-09-08T05:15:24.654Z,82.63
2018-09-08T05:17:52.316Z,82.09
2018-09-08T05:20:19.970Z,81.71
2018-09-08T05:22:47.638Z,82.82
2018-09-08T05:25:15.273Z,82.98
2018-09-08T05:27:42.945Z,81.99
2018-09-08T05:30:10.609Z,82.56
2018-09-08T05:32:38.269Z,83.51
2018-09-08T05:35:06.407Z,82.01
2018-09-08T05:37:34.023Z,82.68
2018-09-08T05:40:01.685Z,83.31
2018-09-08T05:42:29.365Z,82.66
2018-09-08T05:44:57.011Z,82.27
2018-09-08T05:47:24.649Z,83.63
2018-09-08T05:49:52.289Z,82.52
2018-09-08T05:52:19.978Z,82.39
2018-09-08T05:54:47.627Z,83.52
2018-09-08T05:57:15.300Z,83.15
2018-09-08T05:59:42.995Z,82.39
2018-09-08T06:02:10.783Z,84.01
2018-09-08T06:04:38.439Z,83.04
2018-09-08T06:07:06.233Z,83.79
2018-09-08T06:09:34.769Z,82.63
2018-09-08T06:12:02.419Z,83.58
2018-09-08T06:14:31.218Z,82.85
2018-09-08T06:16:59.090Z,82.52
2018-09-08T06:19:26.750Z,82.38
2018-09-08T06:21:54.441Z,82.62
2018-09-08T06:24:22.164Z,82.93
2018-09-08T06:26:49.857Z,82.27
2018-09-08T06:29:17.983Z,83.69
2018-09-08T06:31:46.130Z,83.76
2018-09-08T06:34:13.828Z,84.04
2018-09-08T06:36:41.540Z,83.41
2018-09-08T06:39:15.915Z,83.62
2018-09-08T06:41:43.955Z,82.96
2018-09-08T06:44:11.657Z,84.14
2018-09-08T06:46:39.383Z,83.25
2018-09-08T06:49:07.050Z,82.57
2018-09-08T06:51:35.641Z,82.74
2018-09-08T06:54:03.550Z,83.28
2018-09-08T06:56:31.301Z,83.17
2018-09-08T06:58:59.326Z,84.52
2018-09-08T07:01:27.164Z,84.65
2018-09-08T07:03:54.831Z,83.56
2018-09-08T07:06:22.496Z,84.26
2018-09-08T07:08:50.166Z,84.16
2018-09-08T07:11:17.801Z,84.27
2018-09-08T07:13:45.526Z,84.44
2018-09-08T07:16:13.172Z,85.54
2018-09-08T07:18:40.793Z,85.44
2018-09-08T07:21:08.500Z,84.32
2018-09-08T07:23:36.207Z,84.20
2018-09-08T07:26:04.046Z,84.64
2018-09-08T07:28:32.465Z,85.08
2018-09-08T07:31:00.151Z,84.36
2018-09-08T07:33:28.209Z,84.28
2018-09-08T07:35:55.921Z,84.09
2018-09-08T07:38:24.425Z,85.37
2018-09-08T07:40:52.358Z,84.91
2018-09-08T07:43:20.068Z,84.60
2018-09-08T07:45:47.848Z,85.24
2018-09-08T07:48:15.541Z,86.06
2018-09-08T07:50:43.257Z,84.05
2018-09-08T07:53:11.023Z,84.19
2018-09-08T07:55:38.711Z,85.74
2018-09-08T07:58:06.386Z,85.50
2018-09-08T08:00:34.105Z,85.71
2018-09-08T08:03:01.802Z,85.49
2018-09-08T08:05:29.470Z,85.08
2018-09-08T08:07:57.153Z,84.60
2018-09-08T08:10:24.873Z,85.07
2018-09-08T08:12:53.434Z,84.85
2018-09-08T08:15:21.232Z,85.02
2018-09-08T08:17:48.908Z,84.96
2018-09-08T08:20:16.591Z,84.13
2018-09-08T08:22:44.280Z,84.54
2018-09-08T08:25:11.946Z,85.52
2018-09-08T08:27:39.655Z,84.61
2018-09-08T08:30:07.393Z,85.35
2018-09-08T08:32:35.085Z,84.74
2018-09-08T08:35:02.813Z,85.23
2018-09-08T08:37:30.810Z,84.25
2018-09-08T08:39:58.520Z,84.78
2018-09-08T08:42:26.217Z,84.79
2018-09-08T08:44:53.891Z,84.28
2018-09-08T08:47:21.622Z,84.27
2018-09-08T08:50:00.368Z,84.76
2018-09-08T08:52:39.283Z,84.13
2018-09-08T08:55:05.731Z,84.03
2018-09-08T08:57:33.412Z,83.89
2018-09-08T09:00:01.092Z,85.06
2018-09-08T09:02:28.785Z,84.64
2018-09-08T09:04:56.472Z,85.16
2018-09-08T09:07:24.177Z,84.63
2018-09-08T09:09:51.865Z,84.12
2018-09-08T09:12:19.553Z,84.48
2018-09-08T09:14:47.255Z,84.93
2018-09-08T09:17:14.937Z,84.37
2018-09-08T09:19:53.749Z,84.24
2018-09-08T09:22:32.365Z,84.68
2018-09-08T09:25:05.685Z,84.31
2018-09-08T09:27:34.720Z,84.00
2018-09-08T09:30:02.726Z,84.17
2018-09-08T09:32:30.409Z,84.35
2018-09-08T09:34:58.116Z,84.15
2018-09-08T09:37:25.896Z,84.45
2018-09-08T09:39:54.987Z,84.05
2018-09-08T09:42:22.705Z,83.72
2018-09-08T09:44:50.402Z,83.56
2018-09-08T09:47:18.171Z,83.75
2018-09-08T09:49:45.894Z,83.27
2018-09-08T09:52:13.606Z,83.10
2018-09-08T09:54:41.307Z,83.15
2018-09-08T09:57:09.012Z,83.05
2018-09-08T09:59:36.707Z,82.85
2018-09-08T10:02:13.173Z,82.70
2018-09-08T10:04:40.958Z,82.95
2018-09-08T10:07:09.605Z,82.64
2018-09-08T10:09:38.557Z,82.49
2018-09-08T10:12:06.402Z,82.43
2018-09-08T10:14:34.101Z,82.44
2018-09-08T10:17:01.826Z,82.49
2018-09-08T10:19:29.522Z,82.48
2018-09-08T10:21:57.252Z,82.38
2018-09-08T10:24:24.969Z,82.25
2018-09-08T10:26:52.682Z,82.16
2018-09-08T10:29:20.361Z,82.29
2018-09-08T10:31:48.069Z,82.12
2018-09-08T10:34:15.762Z,82.34
2018-09-08T10:36:43.443Z,81.93
2018-09-08T10:39:11.124Z,81.88
2018-09-08T10:41:38.800Z,81.90
2018-09-08T10:44:06.537Z,81.94
2018-09-08T10:46:34.227Z,81.97
2018-09-08T10:49:01.931Z,82.10
2018-09-08T10:51:46.478Z,82.09
2018-09-08T10:54:14.236Z,81.68
2018-09-08T10:56:41.934Z,81.84
2018-09-08T10:59:09.599Z,81.86
2018-09-08T11:01:37.309Z,81.88
2018-09-08T11:04:05.334Z,81.75
2018-09-08T11:06:33.133Z,81.80
2018-09-08T11:09:00.824Z,81.48
2018-09-08T11:11:28.550Z,81.69
2018-09-08T11:13:56.747Z,81.47
2018-09-08T11:16:24.457Z,81.14
2018-09-08T11:18:52.245Z,81.52
2018-09-08T11:21:19.913Z,81.04
2018-09-08T11:23:47.602Z,81.01
2018-09-08T11:26:15.313Z,81.31
2018-09-08T11:28:43.007Z,81.16
2018-09-08T11:31:10.790Z,80.95
2018-09-08T11:33:38.498Z,81.04
2018-09-08T11:36:06.257Z,81.12
2018-09-08T11:38:34.009Z,80.99
2018-09-08T11:41:01.748Z,80.63
2018-09-08T11:43:29.436Z,80.92
2018-09-08T11:45:57.158Z,80.54
2018-09-08T11:48:24.842Z,80.56
2018-09-08T11:50:52.577Z,80.69
2018-09-08T11:53:20.265Z,80.74
2018-09-08T11:55:47.948Z,80.64
2018-09-08T11:58:15.640Z,80.61
2018-09-08T12:00:43.317Z,80.55
2018-09-08T12:03:11.023Z,80.67
2018-09-08T12:05:38.725Z,80.38
2018-09-08T12:08:06.442Z,80.45
2018-09-08T12:10:34.212Z,80.31
2018-09-08T12:13:01.858Z,80.42
2018-09-08T12:15:29.585Z,80.36
2018-09-08T12:17:57.278Z,80.48
2018-09-08T12:20:24.961Z,80.30
2018-09-08T12:22:52.654Z,80.12
2018-09-08T12:25:20.340Z,80.27
2018-09-08T12:27:48.035Z,80.05
2018-09-08T12:30:15.727Z,80.26
2018-09-08T12:32:43.398Z,80.08
2018-09-08T12:35:11.062Z,80.06
2018-09-08T12:37:38.734Z,79.96
2018-09-08T12:40:06.449Z,79.96
2018-09-08T12:42:34.262Z,80.01
2018-09-08T12:45:02.110Z,79.76
2018-09-08T12:47:29.802Z,79.75
2018-09-08T12:49:57.493Z,79.92
2018-09-08T12:52:25.165Z,79.69
2018-09-08T12:54:52.859Z,79.78
2018-09-08T12:57:20.556Z,79.48
2018-09-08T12:59:48.343Z,79.64
2018-09-08T13:02:16.046Z,79.58
2018-09-08T13:04:43.810Z,79.36
2018-09-08T13:07:11.744Z,79.54
2018-09-08T13:09:39.462Z,79.19
2018-09-08T13:12:07.200Z,79.21
2018-09-08T13:14:34.925Z,79.13
2018-09-08T13:17:02.650Z,78.96
2018-09-08T13:19:30.347Z,79.19
2018-09-08T13:21:58.048Z,79.04
2018-09-08T13:24:25.803Z,79.12
2018-09-08T13:26:53.496Z,79.04
2018-09-08T13:29:21.261Z,78.95
2018-09-08T13:31:48.970Z,78.95
2018-09-08T13:34:16.963Z,78.65
2018-09-08T13:36:44.666Z,78.56
2018-09-08T13:39:12.325Z,78.96
2018-09-08T13:41:40.000Z,78.99
2018-09-08T13:44:07.769Z,78.55
2018-09-08T13:46:35.578Z,78.82
2018-09-08T13:49:03.310Z,78.54
2018-09-08T13:51:31.002Z,78.70
2018-09-08T13:53:58.670Z,78.49
2018-09-08T13:56:26.354Z,78.77
2018-09-08T13:58:54.484Z,78.67
2018-09-08T14:01:22.185Z,78.76
2018-09-08T14:03:49.888Z,78.64
2018-09-08T14:06:17.526Z,78.61
2018-09-08T14:08:45.197Z,78.68
2018-09-08T14:11:12.857Z,78.66
2018-09-08T14:13:40.538Z,78.65
2018-09-08T14:16:08.228Z,78.75
2018-09-08T14:18:35.914Z,78.71
2018-09-08T14:21:03.601Z,78.54
2018-09-08T14:23:31.272Z,78.39
2018-09-08T14:25:58.953Z,78.84
2018-09-08T14:28:26.662Z,78.69
2018-09-08T14:30:54.297Z,78.75
2018-09-08T14:33:21.984Z,78.70
2018-09-08T14:35:49.630Z,78.95
2018-09-08T14:38:17.808Z,78.89
2018-09-08T14:40:45.574Z,78.57
2018-09-08T14:43:13.254Z,78.83
2018-09-08T14:45:40.926Z,78.97
2018-09-08T14:48:08.586Z,79.13
2018-09-08T14:50:36.266Z,78.83
2018-09-08T14:53:03.958Z,78.88
2018-09-08T14:55:31.645Z,78.71
2018-09-08T14:57:59.365Z,79.08
2018-09-08T15:00:27.051Z,79.09
2018-09-08T15:02:54.740Z,79.14
2018-09-08T15:05:22.391Z,79.12
2018-09-08T15:07:50.748Z,79.12
2018-09-08T15:10:18.417Z,79.06
2018-09-08T15:12:46.089Z,79.24
2018-09-08T15:15:13.739Z,79.20
2018-09-08T15:17:41.417Z,79.18
2018-09-08T15:20:09.082Z,79.31
2018-09-08T15:22:36.744Z,78.95
2018-09-08T15:25:04.470Z,78.91
2018-09-08T15:27:32.128Z,79.15
2018-09-08T15:29:59.791Z,79.23
2018-09-08T15:32:27.471Z,78.96
2018-09-08T15:34:55.142Z,79.06
2018-09-08T15:37:22.806Z,79.43
2018-09-08T15:39:50.524Z,79.18
2018-09-08T15:42:18.297Z,79.25
2018-09-08T15:44:46.035Z,79.24
2018-09-08T15:47:13.752Z,79.29
2018-09-08T15:49:41.524Z,79.16
2018-09-08T15:52:10.909Z,78.90
2018-09-08T15:54:38.620Z,79.12
2018-09-08T15:57:06.324Z,79.20
2018-09-08T15:59:34.020Z,79.05
2018-09-08T16:02:01.732Z,79.49
2018-09-08T16:04:29.599Z,79.06
2018-09-08T16:06:57.238Z,79.15
2018-09-08T16:09:24.882Z,79.14
2018-09-08T16:11:52.548Z,79.16
2018-09-08T16:14:20.236Z,79.14
2018-09-08T16:16:47.918Z,79.12
2018-09-08T16:19:15.583Z,78.94
2018-09-08T16:21:43.260Z,79.08
2018-09-08T16:24:10.979Z,79.39
2018-09-08T16:26:38.600Z,79.02
2018-09-08T16:29:06.291Z,79.08
2018-09-08T16:31:34.015Z,79.14
2018-09-08T16:34:01.762Z,79.40
2018-09-08T16:36:29.426Z,79.58
2018-09-08T16:38:57.081Z,79.42
2018-09-08T16:41:24.766Z,79.63
2018-09-08T16:43:52.418Z,79.64
2018-09-08T16:46:20.150Z,79.70
2018-09-08T16:48:47.833Z,79.59
2018-09-08T16:51:15.526Z,79.17
2018-09-08T16:53:43.169Z,79.51
2018-09-08T16:56:11.049Z,79.57
2018-09-08T16:58:38.777Z,79.42
2018-09-08T17:01:06.504Z,79.56
2018-09-08T17:03:34.192Z,79.86
2018-09-08T17:06:01.930Z,79.74
2018-09-08T17:08:29.569Z,79.70
2018-09-08T17:10:57.253Z,79.55
2018-09-08T17:13:26.327Z,79.74
2018-09-08T17:15:54.002Z,79.82
2018-09-08T17:18:21.692Z,80.00
2018-09-08T17:20:49.358Z,79.94
2018-09-08T17:23:17.081Z,80.00
2018-09-08T17:25:44.756Z,79.88
2018-09-08T17:28:12.544Z,79.99
2018-09-08T17:30:40.228Z,80.19
2018-09-08T17:33:07.928Z,79.74
2018-09-08T17:35:35.672Z,79.98
2018-09-08T17:38:03.487Z,80.29
2018-09-08T17:40:31.212Z,80.03
2018-09-08T17:42:59.175Z,80.08
2018-09-08T17:45:26.915Z,80.07
2018-09-08T17:47:54.611Z,79.98
2018-09-08T17:50:22.594Z,80.13
2018-09-08T17:52:50.660Z,79.93
2018-09-08T17:55:18.353Z,80.24
2018-09-08T17:57:46.078Z,79.82
2018-09-08T18:00:13.931Z,80.11
2018-09-08T18:02:42.130Z,80.05
2018-09-08T18:05:10.323Z,80.14
2018-09-08T18:07:38.053Z,80.64
2018-09-08T18:10:06.481Z,80.62
2018-09-08T18:12:34.144Z,80.62
2018-09-08T18:15:01.824Z,80.48
2018-09-08T18:17:29.597Z,80.77
2018-09-08T18:19:57.192Z,80.48
2018-09-08T18:22:24.862Z,80.30
2018-09-08T18:24:52.533Z,80.46
2018-09-08T18:27:20.196Z,80.98
2018-09-08T18:29:47.861Z,80.97
2018-09-08T18:32:15.542Z,80.49
2018-09-08T18:34:43.191Z,80.26
2018-09-08T18:37:10.859Z,80.70
2018-09-08T18:39:38.588Z,80.47
2018-09-08T18:42:06.273Z,80.38
2018-09-08T18:44:34.071Z,80.61
2018-09-08T18:47:01.753Z,80.69
2018-09-08T18:49:29.418Z,80.99
2018-09-08T18:51:57.182Z,81.42
2018-09-08T18:54:24.866Z,81.04
2018-09-08T18:56:52.561Z,80.92
2018-09-08T18:59:20.242Z,81.00
2018-09-08T19:01:47.918Z,80.74
2018-09-08T19:04:15.855Z,80.94
2018-09-08T19:06:43.624Z,80.73
2018-09-08T19:09:11.293Z,80.99
2018-09-08T19:11:38.988Z,80.88
2018-09-08T19:14:11.213Z,80.51
2018-09-08T19:16:38.892Z,80.87
2018-09-08T19:19:06.681Z,80.73
2018-09-08T19:21:34.359Z,80.68
2018-09-08T19:24:07.583Z,80.93
2018-09-08T19:26:35.279Z,80.79
2018-09-08T19:29:08.491Z,81.37
2018-09-08T19:31:36.192Z,80.99
2018-09-08T19:34:03.870Z,80.86
2018-09-08T19:36:31.530Z,80.62
2018-09-08T19:38:59.195Z,80.88
2018-09-08T19:41:26.894Z,81.37
2018-09-08T19:43:54.568Z,80.92
2018-09-08T19:46:27.625Z,81.30
2018-09-08T19:48:55.312Z,80.87
2018-09-08T19:51:23.035Z,81.60
2018-09-08T19:53:56.472Z,81.59
2018-09-08T19:56:29.610Z,81.32
2018-09-08T19:58:58.653Z,81.62
2018-09-08T20:01:26.544Z,81.65
2018-09-08T20:03:54.978Z,81.79
2018-09-08T20:06:22.666Z,81.38
2018-09-08T20:08:50.360Z,81.95
2018-09-08T20:11:18.107Z,81.95
2018-09-08T20:13:45.759Z,82.61
2018-09-08T20:16:13.701Z,82.66
2018-09-08T20:18:41.441Z,82.28
2018-09-08T20:21:09.098Z,82.60
2018-09-08T20:23:36.740Z,81.99
2018-09-08T20:26:04.482Z,81.67
2018-09-08T20:28:32.135Z,82.08
2018-09-08T20:30:59.846Z,82.04
2018-09-08T20:33:27.668Z,82.72
2018-09-08T20:35:55.416Z,82.87
2018-09-08T20:38:23.357Z,82.52
2018-09-08T20:40:51.002Z,83.13
2018-09-08T20:43:18.651Z,82.90
2018-09-08T20:45:46.625Z,82.06
2018-09-08T20:48:14.262Z,82.45
2018-09-08T20:50:41.929Z,82.17
2018-09-08T20:53:09.575Z,82.42
2018-09-08T20:55:37.262Z,82.64
2018-09-08T20:58:04.995Z,82.11
2018-09-08T21:00:32.649Z,82.22
2018-09-08T21:03:00.308Z,82.19
2018-09-08T21:05:28.003Z,81.96
2018-09-08T21:07:55.646Z,82.17
2018-09-08T21:10:23.314Z,82.66
2018-09-08T21:12:51.072Z,82.12
2018-09-08T21:15:18.741Z,82.28
2018-09-08T21:17:46.418Z,82.69
2018-09-08T21:20:14.114Z,82.59
2018-09-08T21:22:41.790Z,82.43
2018-09-08T21:25:09.762Z,82.63
2018-09-08T21:27:37.500Z,83.28
2018-09-08T21:30:05.250Z,83.54
2018-09-08T21:32:33.189Z,83.51
2018-09-08T21:35:00.843Z,83.70
2018-09-08T21:37:28.564Z,84.19
2018-09-08T21:39:56.224Z,83.77
2018-09-08T21:42:23.895Z,83.46
2018-09-08T21:44:51.562Z,82.80
2018-09-08T21:47:19.222Z,82.48
2018-09-08T21:49:46.913Z,82.39
2018-09-08T21:52:14.735Z,82.33
2018-09-08T21:54:42.423Z,82.51
2018-09-08T21:57:10.089Z,82.39
2018-09-08T21:59:38.049Z,83.16
2018-09-08T22:02:05.723Z,83.70
2018-09-08T22:04:33.364Z,83.43
2018-09-08T22:07:01.098Z,82.68
2018-09-08T22:09:28.749Z,82.73
2018-09-08T22:11:56.412Z,82.58
2018-09-08T22:14:24.079Z,82.78
2018-09-08T22:16:51.757Z,82.57
2018-09-08T22:19:19.395Z,82.39
2018-09-08T22:21:47.084Z,83.08
2018-09-08T22:24:14.734Z,82.52
2018-09-08T22:26:42.972Z,83.44
2018-09-08T22:29:10.631Z,83.91
2018-09-08T22:31:38.355Z,83.62
2018-09-08T22:34:06.028Z,83.84
2018-09-08T22:36:33.693Z,82.87
2018-09-08T22:39:01.354Z,83.47
2018-09-08T22:41:29.008Z,84.45
2018-09-08T22:43:56.664Z,84.46
2018-09-08T22:46:24.318Z,85.03
2018-09-08T22:48:51.964Z,83.73
2018-09-08T22:51:19.683Z,84.08
2018-09-08T22:53:47.293Z,84.78
2018-09-08T22:56:14.975Z,84.54
2018-09-08T22:58:42.617Z,84.37
2018-09-08T23:01:10.641Z,83.91
2018-09-08T23:03:38.280Z,84.20
2018-09-08T23:06:05.995Z,84.41
2018-09-08T23:08:34.084Z,84.66
2018-09-08T23:11:01.749Z,85.34
2018-09-08T23:13:29.413Z,84.49
2018-09-08T23:15:57.172Z,84.65
2018-09-08T23:18:24.909Z,84.22
2018-09-08T23:20:52.559Z,84.58
2018-09-08T23:23:20.306Z,84.68
2018-09-08T23:25:47.952Z,84.72
2018-09-08T23:28:15.620Z,84.70
2018-09-08T23:30:43.284Z,84.59
2018-09-08T23:33:10.941Z,85.21
2018-09-08T23:35:38.599Z,84.52
2018-09-08T23:38:06.289Z,84.55
2018-09-08T23:40:34.024Z,85.57
2018-09-08T23:43:01.666Z,84.97
2018-09-08T23:45:29.316Z,85.45
2018-09-08T23:47:56.973Z,84.61
2018-09-08T23:50:24.682Z,84.48
2018-09-08T23:52:52.323Z,84.92
2018-09-08T23:55:19.995Z,85.25
2018-09-08T23:57:47.766Z,85.91
